Time;durP1;ratioP1;P1;durP2;ratioP2;P2;SDS_P1;SDS_P2;PMS_P1;PMS_P2;Temp;Humidity;BMP_temperature;BMP_pressure;BME280_temperature;BME280_humidity;BME280_pressure;Samples;Min_cycle;Max_cycle;Signal;HPM_P1;HPM_P2
2022/04/29 00:01:27;;;;;;;3.35;1.75;;;;;;;;;;5052544;28;20462;-47
2022/04/29 00:03:53;;;;;;;2.33;1.60;;;;;;;;;;5051459;28;20025;-46
2022/04/29 00:06:20;;;;;;;2.00;1.70;;;;;;;;;;5052856;28;20021;-46
2022/04/29 00:08:46;;;;;;;2.03;1.35;;;;;;;;;;5051691;28;20033;-50
2022/04/29 00:11:12;;;;;;;1.92;1.27;;;;;;;;;;5052406;28;20131;-46
2022/04/29 00:13:38;;;;;;;2.13;1.60;;;;;;;;;;5054429;28;20428;-47
2022/04/29 00:16:05;;;;;;;2.85;1.73;;;;;;;;;;5051739;28;20317;-45
2022/04/29 00:18:31;;;;;;;2.35;1.88;;;;;;;;;;5052311;28;20032;-46
2022/04/29 00:20:57;;;;;;;1.77;1.60;;;;;;;;;;5050896;28;20100;-48
2022/04/29 00:23:23;;;;;;;2.40;1.70;;;;;;;;;;5051885;28;20039;-46
2022/04/29 00:25:49;;;;;;;1.60;1.25;;;;;;;;;;5051109;28;20033;-46
2022/04/29 00:28:15;;;;;;;3.58;1.40;;;;;;;;;;5051841;28;20060;-47
2022/04/29 00:30:41;;;;;;;2.35;1.63;;;;;;;;;;5051596;28;20033;-46
2022/04/29 00:33:07;;;;;;;2.25;1.60;;;;;;;;;;5051138;28;20104;-46
2022/04/29 00:35:34;;;;;;;3.72;1.70;;;;;;;;;;5051111;28;20607;-46
2022/04/29 00:38:00;;;;;;;2.95;1.80;;;;;;;;;;5051102;28;20029;-46
2022/04/29 00:40:27;;;;;;;2.45;1.60;;;;;;;;;;5052078;28;20033;-46
2022/04/29 00:42:54;;;;;;;3.55;1.63;;;;;;;;;;5050774;28;20021;-47
2022/04/29 00:45:21;;;;;;;2.13;1.60;;;;;;;;;;5066660;28;20054;-47
2022/04/29 00:47:47;;;;;;;2.22;1.67;;;;;;;;;;5051237;28;20477;-50
2022/04/29 00:50:17;;;;;;;2.33;1.63;;;;;;;;;;5051725;28;20032;-47
2022/04/29 00:52:44;;;;;;;1.60;1.50;;;;;;;;;;5052006;28;20513;-47
2022/04/29 00:55:11;;;;;;;1.98;1.30;;;;;;;;;;5051201;28;20033;-47
2022/04/29 00:57:43;;;;;;;3.55;1.70;;;;;;;;;;5051843;28;20517;-46
2022/04/29 01:00:10;;;;;;;2.00;1.50;;;;;;;;;;5050958;28;20090;-47
2022/04/29 01:02:41;;;;;;;2.33;1.70;;;;;;;;;;5052114;28;20103;-47
2022/04/29 01:05:09;;;;;;;2.63;1.45;;;;;;;;;;5050867;28;20090;-46
2022/04/29 01:07:37;;;;;;;2.70;1.40;;;;;;;;;;5051702;28;20036;-47
2022/04/29 01:10:04;;;;;;;3.03;1.63;;;;;;;;;;5050850;28;20541;-46
2022/04/29 01:12:32;;;;;;;2.08;1.45;;;;;;;;;;5051555;28;20039;-46
2022/04/29 01:14:59;;;;;;;1.38;1.27;;;;;;;;;;5050227;28;20112;-46
2022/04/29 01:17:25;;;;;;;1.85;1.50;;;;;;;;;;5051563;28;20029;-48
2022/04/29 01:19:51;;;;;;;1.92;1.40;;;;;;;;;;5050665;28;20035;-46
2022/04/29 01:22:17;;;;;;;1.73;1.60;;;;;;;;;;5054158;28;20482;-45
2022/04/29 01:24:44;;;;;;;2.15;1.60;;;;;;;;;;5055649;28;20029;-49
2022/04/29 01:27:12;;;;;;;1.52;1.27;;;;;;;;;;5054512;28;20049;-46
2022/04/29 01:29:42;;;;;;;1.70;1.50;;;;;;;;;;5055718;28;20373;-46
2022/04/29 01:32:09;;;;;;;1.58;1.30;;;;;;;;;;5054509;28;20170;-47
2022/04/29 01:34:36;;;;;;;2.22;1.60;;;;;;;;;;5055814;28;20043;-47
2022/04/29 01:37:02;;;;;;;1.77;1.52;;;;;;;;;;5054433;28;20390;-47
2022/04/29 01:39:28;;;;;;;1.50;1.30;;;;;;;;;;5055635;28;20033;-49
2022/04/29 01:41:54;;;;;;;2.13;1.50;;;;;;;;;;5053766;28;20028;-50
2022/04/29 01:44:20;;;;;;;1.67;1.35;;;;;;;;;;5063119;28;20056;-48
2022/04/29 01:46:46;;;;;;;2.28;1.48;;;;;;;;;;5055408;28;20029;-45
2022/04/29 01:49:12;;;;;;;1.65;1.55;;;;;;;;;;5054720;28;20028;-47
2022/04/29 01:51:38;;;;;;;3.47;2.03;;;;;;;;;;5054990;28;20116;-49
2022/04/29 01:54:09;;;;;;;1.98;1.23;;;;;;;;;;5054749;28;20100;-47
2022/04/29 01:56:36;;;;;;;1.40;1.30;;;;;;;;;;5054945;28;20037;-50
2022/04/29 01:59:02;;;;;;;2.10;1.52;;;;;;;;;;5054135;28;20256;-48
2022/04/29 02:01:28;;;;;;;1.83;1.52;;;;;;;;;;5054560;28;20573;-47
2022/04/29 02:04:01;;;;;;;2.92;1.50;;;;;;;;;;5053969;28;20021;-49
2022/04/29 02:06:27;;;;;;;1.80;1.40;;;;;;;;;;5055137;28;20087;-48
2022/04/29 02:08:53;;;;;;;1.67;1.40;;;;;;;;;;5053394;28;20028;-49
2022/04/29 02:11:19;;;;;;;1.30;1.20;;;;;;;;;;5052631;28;20035;-47
2022/04/29 02:13:46;;;;;;;3.10;1.50;;;;;;;;;;5056839;28;20479;-48
2022/04/29 02:16:12;;;;;;;2.00;1.60;;;;;;;;;;5055569;28;20029;-46
2022/04/29 02:18:38;;;;;;;2.10;1.50;;;;;;;;;;5054701;28;20037;-45
2022/04/29 02:21:04;;;;;;;1.45;1.35;;;;;;;;;;5053581;28;20028;-46
2022/04/29 02:23:30;;;;;;;2.60;1.40;;;;;;;;;;5054495;28;20025;-46
2022/04/29 02:26:00;;;;;;;1.85;1.45;;;;;;;;;;5053711;28;20047;-45
2022/04/29 02:28:27;;;;;;;1.50;1.30;;;;;;;;;;5054046;28;20041;-46
2022/04/29 02:30:54;;;;;;;2.25;1.45;;;;;;;;;;5052447;28;20029;-49
2022/04/29 02:33:20;;;;;;;3.08;1.77;;;;;;;;;;5054284;28;20475;-45
2022/04/29 02:35:46;;;;;;;1.70;1.30;;;;;;;;;;5053499;28;20035;-45
2022/04/29 02:38:12;;;;;;;2.60;1.50;;;;;;;;;;5053892;28;20025;-45
2022/04/29 02:40:38;;;;;;;2.10;1.42;;;;;;;;;;5054091;28;20470;-46
2022/04/29 02:43:04;;;;;;;2.53;1.48;;;;;;;;;;5049215;28;20047;-46
2022/04/29 02:45:30;;;;;;;1.73;1.25;;;;;;;;;;5055001;28;20040;-46
2022/04/29 02:47:56;;;;;;;1.83;1.40;;;;;;;;;;5053541;28;20100;-46
2022/04/29 02:50:22;;;;;;;2.03;1.40;;;;;;;;;;5054104;28;20104;-45
2022/04/29 02:52:48;;;;;;;3.67;1.55;;;;;;;;;;5053710;28;20025;-45
2022/04/29 02:55:14;;;;;;;1.70;1.30;;;;;;;;;;5053214;28;20604;-46
2022/04/29 02:57:40;;;;;;;2.92;1.45;;;;;;;;;;5053571;28;20025;-46
2022/04/29 03:00:06;;;;;;;2.08;1.55;;;;;;;;;;5053011;28;20021;-46
2022/04/29 03:02:32;;;;;;;2.45;1.40;;;;;;;;;;5053738;28;20048;-48
2022/04/29 03:04:58;;;;;;;1.58;1.40;;;;;;;;;;5052306;28;20064;-46
2022/04/29 03:07:24;;;;;;;2.33;2.05;;;;;;;;;;5053831;28;20516;-46
2022/04/29 03:09:50;;;;;;;2.28;1.20;;;;;;;;;;5053580;28;20079;-47
2022/04/29 03:12:16;;;;;;;3.75;1.73;;;;;;;;;;5052733;28;20089;-45
2022/04/29 03:14:42;;;;;;;2.38;1.50;;;;;;;;;;5060535;28;20150;-45
2022/04/29 03:19:53;;;;;;;1.77;1.50;;;;;;;;;;5053727;28;20040;-47
2022/04/29 03:22:19;;;;;;;3.42;2.13;;;;;;;;;;5052763;28;20032;-46
2022/04/29 03:24:45;;;;;;;1.73;1.42;;;;;;;;;;5053323;28;20022;-46
2022/04/29 03:27:11;;;;;;;1.75;1.40;;;;;;;;;;5052708;28;20053;-46
2022/04/29 03:29:37;;;;;;;1.45;1.27;;;;;;;;;;5053493;28;20504;-47
2022/04/29 03:32:04;;;;;;;1.48;1.38;;;;;;;;;;5051683;28;20025;-46
2022/04/29 03:34:30;;;;;;;1.55;1.40;;;;;;;;;;5052985;28;20032;-46
2022/04/29 03:36:56;;;;;;;2.45;1.60;;;;;;;;;;5052543;28;20482;-50
2022/04/29 03:39:22;;;;;;;1.50;1.30;;;;;;;;;;5053008;28;20036;-47
2022/04/29 03:41:48;;;;;;;1.80;1.60;;;;;;;;;;5052775;28;20405;-46
2022/04/29 03:44:14;;;;;;;1.63;1.30;;;;;;;;;;5053579;28;20029;-45
2022/04/29 03:46:40;;;;;;;2.05;1.45;;;;;;;;;;5054323;28;20439;-47
2022/04/29 03:51:50;;;;;;;1.80;1.65;;;;;;;;;;5052987;28;20124;-45
2022/04/29 03:54:16;;;;;;;1.83;1.30;;;;;;;;;;5051782;28;20104;-45
2022/04/29 03:56:42;;;;;;;2.47;1.40;;;;;;;;;;5052411;28;20044;-49
2022/04/29 03:59:09;;;;;;;1.60;1.40;;;;;;;;;;5052256;28;20032;-45
2022/04/29 04:01:35;;;;;;;1.70;1.30;;;;;;;;;;5052179;28;20021;-48
2022/04/29 04:04:03;;;;;;;2.25;1.27;;;;;;;;;;5052188;28;20052;-50
2022/04/29 04:09:14;;;;;;;3.35;1.42;;;;;;;;;;5052062;28;20028;-46
2022/04/29 04:11:41;;;;;;;1.52;1.35;;;;;;;;;;5052646;28;20486;-50
2022/04/29 04:14:08;;;;;;;1.85;1.13;;;;;;;;;;5051629;28;20064;-46
2022/04/29 04:16:34;;;;;;;1.50;1.30;;;;;;;;;;5058809;28;20035;-47
2022/04/29 04:19:00;;;;;;;1.88;1.38;;;;;;;;;;5051945;28;20025;-49
2022/04/29 04:21:26;;;;;;;2.75;1.40;;;;;;;;;;5051980;28;20459;-48
2022/04/29 04:23:53;;;;;;;2.10;1.50;;;;;;;;;;5052116;28;20039;-47
2022/04/29 04:26:19;;;;;;;1.83;1.50;;;;;;;;;;5051443;28;20190;-45
2022/04/29 04:28:45;;;;;;;1.98;1.50;;;;;;;;;;5051840;28;20123;-46
2022/04/29 04:31:11;;;;;;;1.50;1.40;;;;;;;;;;5051232;28;20101;-48
2022/04/29 04:33:37;;;;;;;2.50;1.52;;;;;;;;;;5052304;28;20033;-49
2022/04/29 04:36:06;;;;;;;2.10;1.50;;;;;;;;;;5051355;28;20036;-47
2022/04/29 04:38:33;;;;;;;1.58;1.30;;;;;;;;;;5052317;28;20028;-47
2022/04/29 04:40:59;;;;;;;2.17;1.60;;;;;;;;;;5051283;28;20079;-51
2022/04/29 04:43:27;;;;;;;2.60;1.90;;;;;;;;;;5051065;28;20162;-45
2022/04/29 04:45:54;;;;;;;2.13;1.55;;;;;;;;;;5061756;28;20039;-46
2022/04/29 04:48:20;;;;;;;1.55;1.40;;;;;;;;;;5050942;28;20025;-46
2022/04/29 04:50:46;;;;;;;2.40;1.40;;;;;;;;;;5052246;28;20370;-48
2022/04/29 04:53:13;;;;;;;2.00;1.58;;;;;;;;;;5051358;28;20470;-46
2022/04/29 04:55:39;;;;;;;4.03;1.80;;;;;;;;;;5051174;28;20058;-46
2022/04/29 04:58:05;;;;;;;2.75;1.83;;;;;;;;;;5051384;28;20037;-48
2022/04/29 05:00:31;;;;;;;2.25;1.60;;;;;;;;;;5051735;28;20481;-48
2022/04/29 05:02:57;;;;;;;1.95;1.42;;;;;;;;;;5051881;28;20057;-46
2022/04/29 05:05:23;;;;;;;1.77;1.40;;;;;;;;;;5050865;28;20057;-47
2022/04/29 05:07:49;;;;;;;2.15;1.40;;;;;;;;;;5051817;28;20033;-45
2022/04/29 05:10:15;;;;;;;2.38;1.30;;;;;;;;;;5050944;28;20037;-46
2022/04/29 05:12:46;;;;;;;2.10;1.45;;;;;;;;;;5051573;28;20021;-47
2022/04/29 05:15:13;;;;;;;4.25;1.88;;;;;;;;;;5043100;28;20028;-46
2022/04/29 05:17:40;;;;;;;2.88;1.10;;;;;;;;;;5051422;28;20037;-47
2022/04/29 05:20:07;;;;;;;3.38;1.38;;;;;;;;;;5050519;28;20025;-47
2022/04/29 05:22:33;;;;;;;2.08;1.17;;;;;;;;;;5051434;28;20055;-46
2022/04/29 05:24:59;;;;;;;3.17;1.70;;;;;;;;;;5050217;28;20056;-45
2022/04/29 05:27:25;;;;;;;3.65;1.60;;;;;;;;;;5050524;28;20058;-46
2022/04/29 05:29:51;;;;;;;2.30;1.40;;;;;;;;;;5051434;28;20029;-47
2022/04/29 05:32:17;;;;;;;4.13;1.30;;;;;;;;;;5050633;28;20100;-49
2022/04/29 05:34:44;;;;;;;3.45;1.50;;;;;;;;;;5051197;28;20370;-50
2022/04/29 05:37:10;;;;;;;2.08;1.52;;;;;;;;;;5050792;28;20100;-47
2022/04/29 05:42:23;;;;;;;4.10;1.48;;;;;;;;;;5049960;28;20079;-46
2022/04/29 05:44:49;;;;;;;3.92;1.45;;;;;;;;;;5050870;28;20021;-46
2022/04/29 05:47:15;;;;;;;3.05;1.50;;;;;;;;;;5049927;28;20064;-48
2022/04/29 05:49:41;;;;;;;4.07;1.45;;;;;;;;;;5051088;28;20024;-45
2022/04/29 05:52:09;;;;;;;4.60;1.60;;;;;;;;;;5050336;28;20029;-46
2022/04/29 05:54:36;;;;;;;3.15;1.55;;;;;;;;;;5050027;28;20029;-46
2022/04/29 05:57:02;;;;;;;4.70;2.05;;;;;;;;;;5051305;28;20159;-48
2022/04/29 05:59:29;;;;;;;2.55;1.50;;;;;;;;;;5050926;28;20032;-46
2022/04/29 06:01:55;;;;;;;7.10;1.90;;;;;;;;;;5051076;28;20033;-45
2022/04/29 06:04:21;;;;;;;2.63;1.80;;;;;;;;;;5050454;28;20036;-47
2022/04/29 06:06:47;;;;;;;4.40;1.95;;;;;;;;;;5050886;28;20033;-44
2022/04/29 06:09:13;;;;;;;4.32;1.90;;;;;;;;;;5052342;28;20035;-52
2022/04/29 06:11:39;;;;;;;4.43;1.77;;;;;;;;;;5049052;28;20029;-45
2022/04/29 06:14:05;;;;;;;5.40;1.73;;;;;;;;;;5055216;28;20036;-50
2022/04/29 06:16:31;;;;;;;2.70;1.70;;;;;;;;;;5056713;28;20032;-45
2022/04/29 06:18:57;;;;;;;3.10;1.88;;;;;;;;;;5053970;28;20087;-46
2022/04/29 06:21:23;;;;;;;2.72;1.73;;;;;;;;;;5053580;28;20037;-49
2022/04/29 06:23:50;;;;;;;2.67;1.77;;;;;;;;;;5050629;28;20055;-46
2022/04/29 06:26:16;;;;;;;3.15;1.90;;;;;;;;;;5053526;28;20028;-47
2022/04/29 06:28:42;;;;;;;2.88;2.00;;;;;;;;;;5053312;28;20494;-46
2022/04/29 06:31:08;;;;;;;4.97;1.80;;;;;;;;;;5066736;28;20025;-52
2022/04/29 06:33:34;;;;;;;3.45;1.80;;;;;;;;;;5054225;28;20024;-47
2022/04/29 06:36:01;;;;;;;4.07;1.80;;;;;;;;;;5053564;28;20107;-46
2022/04/29 06:38:28;;;;;;;3.35;2.00;;;;;;;;;;5053668;28;20033;-50
2022/04/29 06:40:55;;;;;;;4.60;2.33;;;;;;;;;;5052175;28;20024;-48
2022/04/29 06:43:21;;;;;;;4.95;1.90;;;;;;;;;;5052852;28;20029;-48
2022/04/29 06:45:47;;;;;;;5.65;1.70;;;;;;;;;;5059255;28;20378;-50
2022/04/29 06:48:14;;;;;;;5.18;1.88;;;;;;;;;;5034098;28;20025;-47
2022/04/29 06:50:40;;;;;;;3.95;1.80;;;;;;;;;;5040334;28;20020;-45
2022/04/29 06:53:06;;;;;;;3.90;2.00;;;;;;;;;;5053261;28;20033;-47
2022/04/29 06:55:36;;;;;;;3.83;1.85;;;;;;;;;;5052526;28;20024;-46
2022/04/29 06:58:02;;;;;;;3.67;2.15;;;;;;;;;;5053892;28;20032;-45
2022/04/29 07:00:28;;;;;;;5.32;3.03;;;;;;;;;;5051904;28;20264;-46
2022/04/29 07:02:56;;;;;;;8.43;4.80;;;;;;;;;;5052954;28;20036;-46
2022/04/29 07:05:23;;;;;;;7.63;4.80;;;;;;;;;;5052504;28;20025;-46
2022/04/29 07:07:50;;;;;;;7.85;4.70;;;;;;;;;;5053931;28;20021;-45
2022/04/29 07:10:16;;;;;;;7.38;4.30;;;;;;;;;;5057745;28;20047;-45
2022/04/29 07:12:43;;;;;;;7.00;4.63;;;;;;;;;;5053789;28;20032;-46
2022/04/29 07:15:09;;;;;;;9.25;4.40;;;;;;;;;;5053224;28;20430;-53
2022/04/29 07:17:35;;;;;;;6.88;5.60;;;;;;;;;;5065123;28;20063;-46
2022/04/29 07:20:01;;;;;;;7.45;4.63;;;;;;;;;;5052192;28;20048;-45
2022/04/29 07:22:28;;;;;;;7.78;4.80;;;;;;;;;;5052126;28;20025;-47
2022/04/29 07:24:54;;;;;;;9.07;4.65;;;;;;;;;;5053394;28;20021;-45
2022/04/29 07:27:20;;;;;;;8.30;4.72;;;;;;;;;;5052698;28;20056;-46
2022/04/29 07:29:46;;;;;;;9.80;5.35;;;;;;;;;;5053199;28;20032;-46
2022/04/29 07:32:12;;;;;;;7.85;4.70;;;;;;;;;;5052598;28;20040;-49
2022/04/29 07:42:52;;;;;;;9.07;5.00;;;;;;;;;;5053001;28;20032;-48
2022/04/29 07:45:19;;;;;;;8.80;5.20;;;;;;;;;;5052035;28;20032;-46
2022/04/29 07:47:45;;;;;;;11.95;5.40;;;;;;;;;;5070330;28;20029;-45
2022/04/29 07:50:12;;;;;;;8.38;4.97;;;;;;;;;;5052217;28;20100;-54
2022/04/29 07:52:38;;;;;;;7.93;5.18;;;;;;;;;;5052988;28;20486;-53
2022/04/29 07:55:05;;;;;;;8.13;5.30;;;;;;;;;;5052817;28;20382;-49
2022/04/29 07:57:31;;;;;;;9.55;4.88;;;;;;;;;;5051964;28;20112;-45
2022/04/29 07:59:57;;;;;;;8.95;4.80;;;;;;;;;;5052522;28;20502;-48
2022/04/29 08:02:23;;;;;;;9.68;4.85;;;;;;;;;;5051639;28;20047;-44
2022/04/29 08:04:48;;;;;;;9.10;5.47;;;;;;;;;;5051812;28;20466;-45
2022/04/29 08:07:14;;;;;;;9.00;5.47;;;;;;;;;;5051738;28;20032;-53
2022/04/29 08:09:41;;;;;;;9.98;4.78;;;;;;;;;;5057205;28;20139;-48
2022/04/29 08:12:07;;;;;;;8.70;5.05;;;;;;;;;;5052140;28;20035;-49
2022/04/29 08:14:33;;;;;;;9.50;6.07;;;;;;;;;;5051183;28;20028;-49
2022/04/29 08:16:59;;;;;;;8.65;5.75;;;;;;;;;;5064316;28;20389;-48
2022/04/29 08:19:25;;;;;;;9.65;5.78;;;;;;;;;;5062249;28;20112;-45
2022/04/29 08:21:51;;;;;;;8.48;5.63;;;;;;;;;;5050854;28;20445;-49
2022/04/29 08:24:17;;;;;;;10.60;5.25;;;;;;;;;;5051300;28;20104;-47
2022/04/29 08:26:43;;;;;;;12.27;6.03;;;;;;;;;;5050852;28;20020;-47
2022/04/29 08:29:10;;;;;;;10.88;5.55;;;;;;;;;;5051639;28;20156;-49
2022/04/29 08:31:36;;;;;;;8.73;4.85;;;;;;;;;;5051194;28;20040;-48
2022/04/29 08:34:04;;;;;;;11.90;5.57;;;;;;;;;;5052153;28;20064;-47
2022/04/29 08:36:30;;;;;;;9.40;5.20;;;;;;;;;;5050705;28;20433;-49
2022/04/29 08:38:56;;;;;;;8.27;5.38;;;;;;;;;;5052429;28;20079;-49
2022/04/29 08:41:22;;;;;;;7.63;4.95;;;;;;;;;;5055175;28;20055;-48
2022/04/29 08:43:49;;;;;;;9.30;4.72;;;;;;;;;;5052419;28;20427;-48
2022/04/29 08:46:16;;;;;;;8.48;5.03;;;;;;;;;;5050983;28;20033;-52
2022/04/29 08:48:43;;;;;;;7.63;4.85;;;;;;;;;;5050887;28;20040;-48
2022/04/29 08:51:10;;;;;;;6.30;4.70;;;;;;;;;;5051434;28;20482;-46
2022/04/29 08:53:36;;;;;;;8.27;3.83;;;;;;;;;;5050365;28;20042;-47
2022/04/29 08:58:47;;;;;;;8.32;4.00;;;;;;;;;;5050932;28;20044;-48
2022/04/29 09:01:16;;;;;;;8.95;3.85;;;;;;;;;;5051599;28;20132;-51
2022/04/29 09:03:43;;;;;;;6.00;4.00;;;;;;;;;;5051830;28;20150;-45
2022/04/29 09:06:09;;;;;;;6.95;4.15;;;;;;;;;;5051584;28;20371;-47
2022/04/29 09:08:38;;;;;;;7.18;4.53;;;;;;;;;;5051106;28;20206;-45
2022/04/29 09:11:05;;;;;;;6.35;4.05;;;;;;;;;;5054019;28;20025;-46
2022/04/29 09:13:32;;;;;;;5.63;3.08;;;;;;;;;;5050959;28;20021;-49
2022/04/29 09:15:59;;;;;;;5.75;2.83;;;;;;;;;;5052332;28;20033;-46
2022/04/29 09:18:39;;;;;;;5.85;2.30;;;;;;;;;;5055561;28;20120;-48
2022/04/29 09:21:07;;;;;;;5.05;2.70;;;;;;;;;;5048399;28;20029;-49
2022/04/29 09:23:35;;;;;;;4.40;3.05;;;;;;;;;;5049471;28;20489;-46
2022/04/29 09:26:05;;;;;;;5.22;2.47;;;;;;;;;;5052005;28;20028;-48
2022/04/29 09:28:31;;;;;;;4.95;2.78;;;;;;;;;;5050279;28;20041;-45
2022/04/29 09:30:57;;;;;;;3.75;2.40;;;;;;;;;;5050974;28;20025;-46
2022/04/29 09:33:25;;;;;;;3.22;2.38;;;;;;;;;;5050637;28;20474;-47
2022/04/29 09:35:52;;;;;;;6.00;2.95;;;;;;;;;;5051494;28;20033;-46
2022/04/29 09:41:03;;;;;;;2.55;1.83;;;;;;;;;;5053931;28;20437;-48
2022/04/29 09:43:32;;;;;;;4.43;2.50;;;;;;;;;;5044163;28;20029;-48
2022/04/29 09:46:15;;;;;;;4.03;2.53;;;;;;;;;;5047588;28;20373;-49
2022/04/29 09:48:51;;;;;;;3.65;2.33;;;;;;;;;;5052374;28;20122;-49
2022/04/29 09:51:37;;;;;;;4.50;2.38;;;;;;;;;;5047936;28;20033;-51
2022/04/29 09:54:21;;;;;;;5.63;2.45;;;;;;;;;;5054721;28;20033;-47
2022/04/29 09:57:03;;;;;;;5.10;2.45;;;;;;;;;;5054945;28;20049;-46
2022/04/29 09:59:36;;;;;;;7.05;2.60;;;;;;;;;;5054606;28;20055;-48
2022/04/29 10:02:02;;;;;;;5.38;2.35;;;;;;;;;;5054143;28;20102;-46
2022/04/29 10:04:34;;;;;;;6.60;2.45;;;;;;;;;;5056594;28;20091;-46
2022/04/29 10:07:03;;;;;;;7.32;3.17;;;;;;;;;;5054765;28;20025;-50
2022/04/29 10:09:31;;;;;;;4.22;2.60;;;;;;;;;;5055001;28;20013;-45
2022/04/29 10:11:59;;;;;;;7.55;2.70;;;;;;;;;;5055010;28;20035;-46
2022/04/29 10:14:27;;;;;;;4.85;2.83;;;;;;;;;;5054232;28;20025;-47
2022/04/29 10:22:29;;;;;;;7.50;2.95;;;;;;;;;;5074075;28;20051;-50
2022/04/29 10:24:55;;;;;;;5.47;2.33;;;;;;;;;;5074724;28;20020;-46
2022/04/29 10:27:21;;;;;;;4.00;2.10;;;;;;;;;;5073843;28;20048;-50
2022/04/29 10:29:48;;;;;;;6.50;2.65;;;;;;;;;;5074740;28;20550;-46
2022/04/29 10:32:13;;;;;;;6.50;2.40;;;;;;;;;;5074828;28;20111;-45
2022/04/29 10:34:39;;;;;;;4.88;2.50;;;;;;;;;;5073887;28;20671;-45
2022/04/29 10:37:12;;;;;;;4.97;1.95;;;;;;;;;;5074229;28;20020;-48
2022/04/29 10:39:39;;;;;;;6.10;2.60;;;;;;;;;;5073611;28;20032;-45
2022/04/29 10:42:08;;;;;;;7.22;2.38;;;;;;;;;;5074646;28;20397;-47
2022/04/29 10:44:35;;;;;;;4.82;2.22;;;;;;;;;;5073675;28;20024;-45
2022/04/29 10:47:20;;;;;;;3.95;1.77;;;;;;;;;;5074376;28;20099;-45
2022/04/29 10:49:45;;;;;;;6.95;2.13;;;;;;;;;;5073711;28;20051;-45
2022/04/29 10:52:25;;;;;;;3.00;2.05;;;;;;;;;;5074154;28;20028;-47
2022/04/29 10:54:56;;;;;;;3.80;2.03;;;;;;;;;;5072708;28;20021;-46
2022/04/29 10:57:36;;;;;;;4.88;2.17;;;;;;;;;;5074082;28;20454;-49
2022/04/29 11:00:11;;;;;;;4.30;2.13;;;;;;;;;;5073002;28;20032;-45
2022/04/29 11:02:37;;;;;;;3.95;1.80;;;;;;;;;;5073461;28;20021;-45
2022/04/29 11:05:03;;;;;;;3.92;2.53;;;;;;;;;;5074065;28;20020;-45
2022/04/29 11:07:33;;;;;;;4.55;1.80;;;;;;;;;;5073336;28;20017;-45
2022/04/29 11:09:59;;;;;;;5.43;2.28;;;;;;;;;;5073812;28;20052;-45
2022/04/29 11:12:33;;;;;;;3.67;1.98;;;;;;;;;;5071779;28;20520;-48
2022/04/29 11:15:06;;;;;;;4.15;2.05;;;;;;;;;;5073652;28;20493;-46
2022/04/29 11:17:36;;;;;;;3.55;2.10;;;;;;;;;;5072978;28;20029;-45
2022/04/29 11:20:18;;;;;;;3.72;1.75;;;;;;;;;;5073889;28;20028;-46
2022/04/29 11:25:29;;;;;;;4.75;2.58;;;;;;;;;;5072516;28;20001;-45
2022/04/29 11:27:55;;;;;;;2.83;2.00;;;;;;;;;;5073333;28;20468;-47
2022/04/29 11:30:21;;;;;;;3.95;1.83;;;;;;;;;;5073217;28;20056;-45
2022/04/29 11:32:47;;;;;;;4.15;1.90;;;;;;;;;;5072506;28;20028;-45
2022/04/29 11:35:13;;;;;;;3.38;2.30;;;;;;;;;;5073245;28;20020;-46
2022/04/29 11:37:39;;;;;;;3.05;1.98;;;;;;;;;;5072589;28;20032;-46
2022/04/29 11:40:06;;;;;;;3.78;2.25;;;;;;;;;;5073046;28;20017;-45
2022/04/29 11:42:33;;;;;;;2.65;1.80;;;;;;;;;;5060928;28;20078;-49
2022/04/29 11:45:08;;;;;;;2.75;1.70;;;;;;;;;;5053241;28;20025;-47
2022/04/29 11:47:36;;;;;;;7.18;2.08;;;;;;;;;;5059986;28;20021;-47
2022/04/29 11:50:02;;;;;;;3.17;1.73;;;;;;;;;;5073112;28;20170;-45
2022/04/29 11:52:32;;;;;;;3.78;2.08;;;;;;;;;;5072404;28;20035;-50
2022/04/29 11:54:59;;;;;;;4.43;1.98;;;;;;;;;;5072977;28;20036;-46
2022/04/29 11:57:27;;;;;;;2.97;1.83;;;;;;;;;;5072631;28;20035;-53
2022/04/29 11:59:53;;;;;;;3.55;2.10;;;;;;;;;;5072942;28;20040;-47
2022/04/29 12:02:23;;;;;;;2.67;1.75;;;;;;;;;;5073098;28;20035;-50
2022/04/29 12:04:56;;;;;;;3.42;1.60;;;;;;;;;;5070501;28;20047;-47
2022/04/29 12:07:23;;;;;;;4.28;1.80;;;;;;;;;;5073068;28;20055;-49
2022/04/29 12:09:49;;;;;;;3.55;1.90;;;;;;;;;;5071971;28;20028;-47
2022/04/29 12:12:31;;;;;;;2.75;1.67;;;;;;;;;;5072726;28;20078;-46
2022/04/29 12:14:58;;;;;;;;;;;;;;;;;;5072966;28;20103;-47
2022/04/29 12:17:35;;;;;;;3.33;1.55;;;;;;;;;;5072535;28;19908;-46
2022/04/29 12:20:01;;;;;;;2.35;1.33;;;;;;;;;;5072528;28;20043;-47
2022/04/29 12:22:28;;;;;;;3.17;2.03;;;;;;;;;;5072312;28;20107;-52
2022/04/29 12:24:54;;;;;;;2.60;1.80;;;;;;;;;;5072291;28;20070;-46
2022/04/29 12:27:28;;;;;;;2.22;1.60;;;;;;;;;;5071776;28;20497;-46
2022/04/29 12:35:30;;;;;;;2.72;1.67;;;;;;;;;;5071500;28;20039;-51
2022/04/29 12:37:56;;;;;;;3.85;1.65;;;;;;;;;;5072384;28;20048;-47
2022/04/29 12:40:29;;;;;;;2.78;1.60;;;;;;;;;;5072308;28;20056;-47
2022/04/29 12:43:15;;;;;;;3.80;1.58;;;;;;;;;;5057642;28;20021;-46
2022/04/29 12:45:41;;;;;;;5.22;1.90;;;;;;;;;;5051150;28;20052;-47
2022/04/29 12:48:16;;;;;;;3.63;1.42;;;;;;;;;;5061477;28;20027;-47
2022/04/29 12:50:43;;;;;;;2.17;1.52;;;;;;;;;;5071217;28;20021;-50
2022/04/29 12:53:16;;;;;;;2.15;1.70;;;;;;;;;;5072367;28;20035;-46
2022/04/29 12:55:43;;;;;;;3.05;1.80;;;;;;;;;;5070804;28;20557;-47
2022/04/29 12:58:14;;;;;;;3.33;1.73;;;;;;;;;;5072294;28;20461;-47
2022/04/29 13:00:41;;;;;;;2.47;1.45;;;;;;;;;;5071207;28;20013;-47
2022/04/29 13:03:12;;;;;;;1.75;1.50;;;;;;;;;;5072133;28;20052;-49
2022/04/29 13:05:38;;;;;;;2.33;1.45;;;;;;;;;;5071089;28;20363;-47
2022/04/29 13:08:05;;;;;;;3.17;1.50;;;;;;;;;;5072140;28;20488;-47
2022/04/29 13:10:31;;;;;;;2.53;1.50;;;;;;;;;;5071291;28;20466;-52
2022/04/29 13:12:58;;;;;;;2.22;2.03;;;;;;;;;;5071770;28;20024;-48
2022/04/29 13:15:24;;;;;;;2.55;1.70;;;;;;;;;;5071678;28;20035;-47
2022/04/29 13:17:50;;;;;;;1.98;1.13;;;;;;;;;;5073185;28;20025;-47
2022/04/29 13:20:16;;;;;;;1.52;1.30;;;;;;;;;;5076222;28;20032;-47
2022/04/29 13:22:42;;;;;;;3.47;1.50;;;;;;;;;;5075278;28;20381;-47
2022/04/29 13:25:09;;;;;;;4.05;1.50;;;;;;;;;;5075758;28;20017;-47
2022/04/29 13:27:35;;;;;;;2.33;1.38;;;;;;;;;;5074906;28;20048;-46
2022/04/29 13:30:05;;;;;;;2.40;1.55;;;;;;;;;;5075712;28;20035;-46
2022/04/29 13:32:31;;;;;;;2.25;1.52;;;;;;;;;;5075590;28;20037;-53
2022/04/29 13:34:57;;;;;;;1.75;1.40;;;;;;;;;;5075372;28;20106;-48
2022/04/29 13:37:23;;;;;;;1.65;1.23;;;;;;;;;;5075748;28;20032;-47
2022/04/29 13:39:49;;;;;;;1.50;1.30;;;;;;;;;;5074802;28;20032;-48
2022/04/29 13:42:15;;;;;;;2.95;2.15;;;;;;;;;;5066412;28;20029;-49
2022/04/29 13:44:42;;;;;;;2.70;1.20;;;;;;;;;;5053320;28;20463;-47
2022/04/29 13:47:08;;;;;;;2.40;1.30;;;;;;;;;;5055685;28;20028;-51
2022/04/29 13:49:34;;;;;;;1.20;1.10;;;;;;;;;;5054136;28;20064;-50
2022/04/29 13:53:07;;;;;;;1.77;1.58;;;;;;;;;;5055223;28;20021;-46
2022/04/29 13:54:46;;;;;;;2.90;1.58;;;;;;;;;;5054268;28;20029;-46
2022/04/29 13:57:12;;;;;;;4.72;1.30;;;;;;;;;;5054984;28;20037;-47
2022/04/29 13:59:38;;;;;;;2.28;1.60;;;;;;;;;;5054755;28;20032;-48
2022/04/29 14:02:05;;;;;;;1.52;1.33;;;;;;;;;;5053812;28;20374;-46
2022/04/29 14:04:31;;;;;;;1.60;1.10;;;;;;;;;;5055270;28;20104;-46
2022/04/29 14:06:56;;;;;;;2.92;1.40;;;;;;;;;;5052678;28;20151;-49
2022/04/29 14:09:22;;;;;;;2.55;1.33;;;;;;;;;;5057099;28;20420;-47
2022/04/29 14:11:49;;;;;;;4.30;1.45;;;;;;;;;;5054897;28;20025;-48
2022/04/29 14:14:15;;;;;;;3.60;1.77;;;;;;;;;;5057525;28;20025;-47
2022/04/29 14:16:41;;;;;;;2.13;1.48;;;;;;;;;;5054966;28;20098;-48
2022/04/29 14:19:07;;;;;;;2.33;1.70;;;;;;;;;;5058939;28;20063;-47
2022/04/29 14:21:33;;;;;;;4.88;1.30;;;;;;;;;;5055715;28;20047;-50
2022/04/29 14:23:59;;;;;;;3.50;1.63;;;;;;;;;;5054508;28;20017;-48
2022/04/29 14:26:26;;;;;;;3.83;1.60;;;;;;;;;;5054284;28;20040;-50
2022/04/29 14:28:52;;;;;;;3.83;1.52;;;;;;;;;;5053086;28;20829;-47
2022/04/29 14:31:18;;;;;;;7.43;1.52;;;;;;;;;;5054128;28;20029;-51
2022/04/29 14:33:45;;;;;;;3.92;1.48;;;;;;;;;;5053991;28;20032;-52
2022/04/29 14:36:11;;;;;;;2.20;1.58;;;;;;;;;;5054020;28;20032;-48
2022/04/29 14:38:38;;;;;;;2.53;1.30;;;;;;;;;;5053840;28;20040;-50
2022/04/29 14:41:04;;;;;;;3.03;1.80;;;;;;;;;;5053023;28;20524;-49
2022/04/29 14:43:30;;;;;;;2.00;1.52;;;;;;;;;;5052930;28;20029;-49
2022/04/29 14:45:56;;;;;;;3.85;1.58;;;;;;;;;;5052470;28;20029;-49
2022/04/29 14:48:22;;;;;;;3.45;1.40;;;;;;;;;;5063630;28;20020;-49
2022/04/29 14:50:50;;;;;;;2.28;1.73;;;;;;;;;;5072466;28;20043;-47
2022/04/29 14:53:16;;;;;;;7.30;1.70;;;;;;;;;;5073190;28;20028;-48
2022/04/29 14:55:43;;;;;;;5.15;1.38;;;;;;;;;;5068182;28;20021;-47
2022/04/29 14:58:09;;;;;;;5.78;1.30;;;;;;;;;;5052170;28;20068;-47
2022/04/29 15:00:35;;;;;;;1.92;1.30;;;;;;;;;;5053423;28;20052;-54
2022/04/29 15:03:01;;;;;;;2.60;1.50;;;;;;;;;;5053625;28;20056;-47
2022/04/29 15:05:27;;;;;;;2.72;1.40;;;;;;;;;;5053421;28;20513;-48
2022/04/29 15:07:53;;;;;;;2.85;1.40;;;;;;;;;;5053249;28;20018;-47
2022/04/29 15:15:50;;;;;;;4.00;1.60;;;;;;;;;;5052560;28;20111;-47
2022/04/29 15:18:19;;;;;;;2.35;1.42;;;;;;;;;;5064268;28;20032;-48
2022/04/29 15:20:46;;;;;;;2.80;1.60;;;;;;;;;;5055358;28;20047;-46
2022/04/29 15:23:12;;;;;;;4.20;1.90;;;;;;;;;;5052624;28;20087;-47
2022/04/29 15:25:38;;;;;;;6.60;1.67;;;;;;;;;;5052390;28;20056;-51
2022/04/29 15:28:05;;;;;;;2.65;1.48;;;;;;;;;;5053203;28;20052;-48